LKMT/OSR METAR and TAF weather

Enter ICAO airport designator
Station Type Date Time Source
LKMT METAR 2022/12/04 11:00 UTC NOAA

LKMT 041100Z VRB02KT 0300 R22/0325N R04/0375N FZFG VV002 M00/M00 Q1021 TEMPO 0800 FZFG


Station Type Date Time Source
LKMT Decoded METAR 2022/12/04 11:00 UTC NOAA

Ostrava / Mosnov, Czech Republic (LKMT) 49-41N 018-07E 256M
Dec 04, 2022 - 06:00 AM EST / 2022.12.04 1100 UTC
Wind: Variable at 2 MPH (2 KT):0
Visibility: less than 1 mile:0
Sky conditions: obscured
Weather: freezing fog
Temperature: 32 F (0 C)
Dew Point: 32 F (0 C)
Relative Humidity: 100%
Pressure (altimeter): 30.15 in. Hg (1021 hPa)
ob: LKMT 041100Z VRB02KT 0300 R22/0325N R04/0375N FZFG VV002 M00/M00 Q1021 TEMPO 0800 FZFG
cycle: 11

Station Type Date Time Source
LKMT TAF 2022/12/04 12:00 UTC NOAA

TAF LKMT 041100Z 0412/0518 VRB02KT 0300 FZFG VV001
TEMPO 0412/0508 0800 FG VV002 PROB30
TEMPO 0412/0416 2000 BR BKN004
BECMG 0508/0510 22010KT 9999 BKN017

Example: see airport list